Time,TemperatureF,DewpointF,PressureIn,WindDirection,WindDirectionDegrees,WindSpeedMPH,WindSpeedGustMPH,Humidity,HourlyPrecipIn,Conditions,Clouds,dailyrainin,SolarRadiationWatts/m^2,SoftwareType,DateUTC
2013-02-04 02:00:00,27.0,27.0,30.09,SSW,213,0.0,-999.0,98,-99.99,,,-99.99,0.000000,,2013-02-04 08:00:00,
2013-02-04 02:52:00,27.0,27.0,30.09,SSW,213,0.0,-999.0,98,-99.99,,,-99.99,0.000000,,2013-02-04 08:52:00,
2013-02-04 03:00:00,27.0,27.0,30.08,East,81,0.0,-999.0,99,-99.99,,,-99.99,0.000000,,2013-02-04 09:00:00,
2013-02-04 03:52:00,27.0,27.0,30.08,East,81,0.0,-999.0,99,-99.99,,,-99.99,0.000000,,2013-02-04 09:52:00,
2013-02-04 04:00:00,28.0,28.0,30.10,SW,234,0.0,-999.0,99,-99.99,,,-99.99,0.000000,,2013-02-04 10:00:00,
2013-02-04 04:52:00,28.0,28.0,30.10,SW,234,0.0,-999.0,99,-99.99,,,-99.99,0.000000,,2013-02-04 10:52:00,
2013-02-04 05:00:00,29.0,29.0,30.09,NNE,18,1.0,-999.0,99,-99.99,,,-99.99,0.000000,,2013-02-04 11:00:00,
2013-02-04 05:52:00,29.0,29.0,30.09,NNE,18,1.0,-999.0,99,-99.99,,,-99.99,0.000000,,2013-02-04 11:52:00,
2013-02-04 06:00:00,29.0,29.0,30.09,NNE,33,0.0,-999.0,99,-99.99,,,-99.99,0.000000,,2013-02-04 12:00:00,
2013-02-04 06:53:00,29.0,29.0,30.09,NNE,33,0.0,-999.0,99,-99.99,,,-99.99,0.000000,,2013-02-04 12:53:00,
2013-02-04 07:00:00,28.0,28.0,30.10,SE,125,0.0,-999.0,99,-99.99,,,-99.99,2.020000,,2013-02-04 13:00:00,
2013-02-04 07:52:00,28.0,28.0,30.10,SE,125,0.0,-999.0,99,-99.99,,,-99.99,2.020000,,2013-02-04 13:52:00,
2013-02-04 09:00:00,38.0,32.0,30.09,SE,144,1.0,-999.0,78,-99.99,,,-99.99,140.300003,,2013-02-04 15:00:00,
2013-02-04 09:53:00,38.0,32.0,30.09,SE,144,1.0,-999.0,78,-99.99,,,-99.99,140.300003,,2013-02-04 15:53:00,
2013-02-04 11:00:00,44.0,33.0,30.09,SSE,154,3.0,-999.0,63,-99.99,,,-99.99,210.500000,,2013-02-04 17:00:00,
2013-02-04 11:52:00,44.0,33.0,30.09,SSE,154,3.0,-999.0,63,-99.99,,,-99.99,210.500000,,2013-02-04 17:52:00,
2013-02-04 12:00:00,48.0,31.0,30.08,South,178,3.0,-999.0,51,-99.99,,,-99.99,237.199997,,2013-02-04 18:00:00,
2013-02-04 12:52:00,48.0,31.0,30.08,South,178,3.0,-999.0,51,-99.99,,,-99.99,237.199997,,2013-02-04 18:52:00,
2013-02-04 13:00:00,49.0,30.0,30.05,South,174,4.0,-999.0,48,-99.99,,,-99.99,296.600006,,2013-02-04 19:00:00,
2013-02-04 13:52:00,49.0,30.0,30.05,South,174,4.0,-999.0,48,-99.99,,,-99.99,296.600006,,2013-02-04 19:52:00,
2013-02-04 14:00:00,50.0,29.0,30.03,South,181,4.0,-999.0,45,-99.99,,,-99.99,283.000000,,2013-02-04 20:00:00,
2013-02-04 14:52:00,50.0,29.0,30.03,South,181,4.0,-999.0,45,-99.99,,,-99.99,283.000000,,2013-02-04 20:52:00,
2013-02-04 15:00:00,50.0,30.0,30.02,South,184,5.0,-999.0,45,-99.99,,,-99.99,301.500000,,2013-02-04 21:00:00,
2013-02-04 15:52:00,50.0,30.0,30.02,South,184,5.0,-999.0,45,-99.99,,,-99.99,301.500000,,2013-02-04 21:52:00,
2013-02-04 17:00:00,48.0,31.0,30.03,SSW,196,2.0,-999.0,51,-99.99,,,-99.99,32.340000,,2013-02-04 23:00:00,
2013-02-04 17:52:00,48.0,31.0,30.03,SSW,196,2.0,-999.0,51,-99.99,,,-99.99,32.340000,,2013-02-04 23:52:00,